Time;durP1;ratioP1;P1;durP2;ratioP2;P2;SDS_P1;SDS_P2;PMS_P1;PMS_P2;Temp;Humidity;BMP_temperature;BMP_pressure;BME280_temperature;BME280_humidity;BME280_pressure;Samples;Min_cycle;Max_cycle;Signal;HPM_P1;HPM_P2
2023/08/29 00:00:09;;;;;;;1.40;0.50;;;13.90;99.90;;;;;;4991970;28;20041;-76
2023/08/29 00:02:41;;;;;;;1.00;0.50;;;13.90;99.90;;;;;;5006969;28;20473;-75
2023/08/29 00:05:09;;;;;;;1.25;0.50;;;13.90;99.90;;;;;;4976362;28;20437;-76
2023/08/29 00:07:36;;;;;;;1.33;0.50;;;13.90;99.90;;;;;;4994932;28;20133;-77
2023/08/29 00:10:03;;;;;;;2.45;0.60;;;13.80;99.90;;;;;;4995058;28;20049;-76
2023/08/29 00:12:32;;;;;;;0.68;0.40;;;13.80;99.90;;;;;;5007553;28;20313;-76
2023/08/29 00:14:59;;;;;;;0.82;0.50;;;13.70;99.90;;;;;;4995074;28;20040;-76
2023/08/29 00:17:26;;;;;;;1.42;0.38;;;13.80;99.90;;;;;;5025248;28;20030;-76
2023/08/29 00:19:53;;;;;;;1.90;0.43;;;13.80;99.90;;;;;;4994716;28;20487;-77
2023/08/29 00:22:20;;;;;;;0.90;0.50;;;13.80;99.90;;;;;;5023697;28;20427;-76
2023/08/29 00:24:48;;;;;;;1.27;0.40;;;13.70;99.90;;;;;;4989837;28;20029;-76
2023/08/29 00:27:15;;;;;;;1.00;0.50;;;13.70;99.90;;;;;;5008396;28;20046;-76
2023/08/29 00:29:42;;;;;;;0.65;0.40;;;13.70;99.90;;;;;;4993121;28;20417;-76
2023/08/29 00:32:10;;;;;;;1.80;0.40;;;13.70;99.90;;;;;;5007061;28;20037;-76
2023/08/29 00:34:37;;;;;;;1.30;0.60;;;13.70;99.90;;;;;;4976259;28;20539;-77
2023/08/29 00:37:04;;;;;;;0.95;0.50;;;13.70;99.90;;;;;;4995389;28;20037;-75
2023/08/29 00:39:30;;;;;;;1.80;0.50;;;13.70;99.90;;;;;;4996469;28;20033;-76
2023/08/29 00:41:57;;;;;;;1.20;0.50;;;13.70;99.90;;;;;;5010867;28;20034;-76
2023/08/29 00:44:23;;;;;;;0.68;0.50;;;13.70;99.90;;;;;;4991867;28;20077;-76
2023/08/29 00:46:51;;;;;;;1.90;0.50;;;13.70;99.90;;;;;;5014283;28;20147;-77
2023/08/29 00:49:21;;;;;;;1.42;0.85;;;13.70;99.90;;;;;;4980142;28;20038;-77
2023/08/29 00:51:48;;;;;;;1.50;0.70;;;13.60;99.90;;;;;;4979242;28;20052;-77
2023/08/29 00:54:17;;;;;;;1.05;0.55;;;13.60;99.90;;;;;;5012683;28;20742;-76
2023/08/29 00:56:45;;;;;;;1.10;0.50;;;13.60;99.90;;;;;;4997204;28;23443;-76
2023/08/29 00:59:12;;;;;;;1.23;0.50;;;13.60;99.90;;;;;;4998252;28;20038;-77
2023/08/29 01:01:39;;;;;;;1.33;0.40;;;13.60;99.90;;;;;;4979216;28;20576;-76
2023/08/29 01:04:09;;;;;;;0.68;0.47;;;13.50;99.90;;;;;;4997149;28;20045;-76
2023/08/29 01:06:37;;;;;;;0.75;0.43;;;13.50;99.90;;;;;;5032147;28;20041;-77
2023/08/29 01:09:06;;;;;;;1.15;0.50;;;13.50;99.90;;;;;;5030407;28;20042;-77
2023/08/29 01:11:51;;;;;;;0.90;0.40;;;13.50;99.90;;;;;;5013337;28;20041;-76
2023/08/29 01:14:26;;;;;;;1.75;0.75;;;13.40;99.90;;;;;;4995596;28;20404;-77
2023/08/29 01:17:03;;;;;;;1.65;0.60;;;13.40;99.90;;;;;;5013608;28;20029;-77
2023/08/29 01:19:31;;;;;;;1.92;0.50;;;13.40;99.90;;;;;;5028092;28;20029;-77
2023/08/29 01:22:23;;;;;;;2.90;0.50;;;13.40;99.90;;;;;;4978923;28;20061;-77
2023/08/29 01:25:12;;;;;;;1.02;0.50;;;13.40;99.90;;;;;;5011228;28;20042;-77
2023/08/29 01:27:39;;;;;;;1.10;0.50;;;13.40;99.90;;;;;;4997440;28;20050;-77
2023/08/29 01:30:06;;;;;;;2.22;0.50;;;13.30;99.90;;;;;;4996562;28;22696;-77
2023/08/29 01:32:33;;;;;;;1.50;0.47;;;13.40;99.90;;;;;;4962153;28;20480;-77
2023/08/29 01:35:01;;;;;;;1.65;0.50;;;13.30;99.90;;;;;;5028457;28;20041;-77
2023/08/29 01:37:28;;;;;;;2.15;0.90;;;13.30;99.90;;;;;;4980499;28;20488;-77
2023/08/29 01:39:55;;;;;;;1.63;0.50;;;13.30;99.90;;;;;;5014021;28;20494;-77
2023/08/29 01:42:21;;;;;;;2.00;0.52;;;13.30;99.90;;;;;;4978388;28;20037;-78
2023/08/29 01:44:47;;;;;;;0.80;0.50;;;13.30;99.90;;;;;;4995060;28;20060;-78
2023/08/29 01:47:14;;;;;;;1.10;0.40;;;13.30;99.90;;;;;;5012627;28;20038;-77
2023/08/29 01:49:40;;;;;;;0.90;0.40;;;13.30;99.90;;;;;;4995581;28;20038;-77
2023/08/29 01:52:07;;;;;;;1.17;0.40;;;13.30;99.90;;;;;;4994281;28;20039;-78
2023/08/29 01:54:33;;;;;;;1.20;0.40;;;13.30;99.90;;;;;;5009794;28;20037;-80
2023/08/29 01:57:02;;;;;;;3.03;1.45;;;13.20;99.90;;;;;;4998748;28;20041;-80
2023/08/29 01:59:30;;;;;;;3.47;2.35;;;13.20;99.90;;;;;;4994011;28;20037;-80
2023/08/29 02:01:57;;;;;;;7.75;4.25;;;13.20;99.90;;;;;;5011563;28;20029;-79
2023/08/29 02:04:23;;;;;;;9.02;5.22;;;13.20;99.90;;;;;;4993394;28;20048;-80
2023/08/29 02:06:50;;;;;;;7.95;5.22;;;13.20;99.90;;;;;;4980675;28;20037;-80
2023/08/29 02:09:16;;;;;;;11.25;6.88;;;13.20;99.90;;;;;;4997223;28;20041;-77
2023/08/29 02:11:43;;;;;;;9.00;5.30;;;13.20;99.90;;;;;;4995179;28;20622;-77
2023/08/29 02:14:11;;;;;;;4.55;2.70;;;13.20;99.90;;;;;;4977253;28;20046;-77
2023/08/29 02:16:38;;;;;;;3.13;1.77;;;13.20;99.90;;;;;;4996243;28;20037;-79
2023/08/29 02:19:05;;;;;;;4.13;1.98;;;13.20;99.90;;;;;;5029697;28;20033;-77
2023/08/29 02:21:32;;;;;;;4.97;3.10;;;13.20;99.90;;;;;;5026737;28;20048;-76
2023/08/29 02:23:59;;;;;;;3.53;1.77;;;13.20;99.90;;;;;;5026917;28;20465;-77
2023/08/29 02:26:28;;;;;;;1.98;0.82;;;13.20;99.90;;;;;;5012180;28;20485;-77
2023/08/29 02:28:54;;;;;;;2.17;0.90;;;13.20;99.90;;;;;;4995327;28;20312;-77
2023/08/29 02:31:21;;;;;;;1.85;0.60;;;13.20;99.90;;;;;;5010951;28;20026;-77
2023/08/29 02:33:48;;;;;;;1.40;0.57;;;13.20;99.90;;;;;;5011094;28;20044;-77
2023/08/29 02:36:15;;;;;;;0.98;0.35;;;13.20;99.90;;;;;;4976466;28;20046;-77
2023/08/29 02:38:41;;;;;;;2.10;0.35;;;13.30;99.90;;;;;;4993117;28;20036;-78
2023/08/29 02:41:07;;;;;;;0.82;0.30;;;13.20;99.90;;;;;;4976747;28;20452;-77
2023/08/29 02:43:34;;;;;;;2.03;0.40;;;13.30;99.90;;;;;;5024055;28;20517;-77
2023/08/29 02:46:00;;;;;;;1.38;0.38;;;13.30;99.90;;;;;;4993834;28;20049;-78
2023/08/29 02:48:27;;;;;;;1.33;0.57;;;13.30;99.90;;;;;;5010242;28;20045;-79
2023/08/29 02:50:54;;;;;;;1.30;0.70;;;13.30;99.90;;;;;;4976493;28;20404;-83
2023/08/29 02:53:21;;;;;;;2.05;0.50;;;13.30;99.90;;;;;;4992150;28;20029;-79
2023/08/29 02:55:52;;;;;;;1.15;0.40;;;13.30;99.90;;;;;;4978865;28;20045;-79
2023/08/29 02:58:19;;;;;;;1.83;0.40;;;13.30;99.90;;;;;;5010579;28;20041;-80
2023/08/29 03:00:47;;;;;;;0.85;0.32;;;13.30;99.90;;;;;;4995789;28;20066;-79
2023/08/29 03:03:13;;;;;;;0.70;0.30;;;13.30;99.90;;;;;;5011324;28;20045;-79
2023/08/29 03:05:42;;;;;;;0.65;0.30;;;13.30;99.90;;;;;;5010772;28;20511;-79
2023/08/29 03:08:09;;;;;;;1.30;0.30;;;13.30;99.90;;;;;;5008610;28;20033;-79
2023/08/29 03:10:37;;;;;;;0.80;0.30;;;13.30;99.90;;;;;;4976754;28;20045;-79
2023/08/29 03:13:03;;;;;;;1.30;0.20;;;13.30;99.90;;;;;;4991756;28;20034;-79
2023/08/29 03:15:33;;;;;;;0.60;0.30;;;13.30;99.90;;;;;;4992489;28;20052;-79
2023/08/29 03:18:00;;;;;;;0.50;0.22;;;13.30;99.90;;;;;;5009943;28;20025;-79
2023/08/29 03:20:28;;;;;;;1.00;0.30;;;13.30;99.90;;;;;;5009612;28;20033;-79
2023/08/29 03:22:55;;;;;;;1.05;0.30;;;13.30;99.90;;;;;;5007283;28;20509;-79
2023/08/29 03:25:22;;;;;;;1.25;0.28;;;13.20;99.90;;;;;;4977412;28;20042;-79
2023/08/29 03:27:49;;;;;;;0.30;0.20;;;13.20;99.90;;;;;;5011250;28;20829;-79
2023/08/29 03:30:16;;;;;;;1.08;0.20;;;13.20;99.90;;;;;;4993615;28;20049;-80
2023/08/29 03:32:42;;;;;;;1.17;0.20;;;13.10;99.90;;;;;;5008736;28;20038;-79
2023/08/29 03:35:09;;;;;;;0.32;0.20;;;13.10;99.90;;;;;;4975651;28;20041;-80
2023/08/29 03:37:36;;;;;;;0.93;0.30;;;13.10;99.90;;;;;;5010106;28;20033;-79
2023/08/29 03:40:03;;;;;;;2.53;0.20;;;13.10;99.90;;;;;;4995635;28;20046;-79
2023/08/29 03:42:30;;;;;;;0.80;0.30;;;13.00;99.90;;;;;;5024228;28;20516;-79
2023/08/29 03:44:56;;;;;;;1.08;0.40;;;13.00;99.90;;;;;;4992092;28;20050;-79
2023/08/29 03:47:23;;;;;;;0.50;0.30;;;13.00;99.90;;;;;;4993419;28;20484;-79
2023/08/29 03:49:50;;;;;;;0.93;0.30;;;13.00;99.90;;;;;;4978155;28;20340;-80
2023/08/29 03:52:24;;;;;;;1.00;0.30;;;12.90;99.90;;;;;;4991650;28;20034;-79
2023/08/29 03:54:55;;;;;;;0.93;0.30;;;12.90;99.90;;;;;;5008961;28;20034;-79
2023/08/29 03:57:26;;;;;;;2.05;0.32;;;12.90;99.90;;;;;;4992688;28;20473;-79
2023/08/29 03:59:54;;;;;;;0.70;0.35;;;12.80;99.90;;;;;;5009849;28;20392;-80
2023/08/29 04:02:20;;;;;;;1.48;0.40;;;12.80;99.90;;;;;;5003151;28;20041;-80
2023/08/29 04:04:50;;;;;;;1.45;0.30;;;12.80;99.90;;;;;;4973270;28;20046;-80
2023/08/29 04:07:17;;;;;;;0.82;0.30;;;12.80;99.90;;;;;;4975687;28;20428;-79
2023/08/29 04:09:44;;;;;;;0.70;0.30;;;12.80;99.90;;;;;;4975649;28;20643;-79
2023/08/29 04:12:10;;;;;;;0.55;0.30;;;12.80;99.90;;;;;;5023971;28;20038;-79
2023/08/29 04:14:37;;;;;;;1.58;0.30;;;12.80;99.90;;;;;;5023559;28;20034;-79
2023/08/29 04:17:04;;;;;;;1.30;0.35;;;12.80;99.90;;;;;;4993157;28;20045;-79
2023/08/29 04:19:30;;;;;;;1.95;0.40;;;12.70;99.90;;;;;;4993866;28;20042;-79
2023/08/29 04:21:57;;;;;;;1.08;0.47;;;12.70;99.90;;;;;;4996610;28;20041;-78
2023/08/29 04:24:23;;;;;;;2.10;0.40;;;12.70;99.90;;;;;;4993403;28;20029;-79
2023/08/29 04:26:50;;;;;;;1.88;0.40;;;12.60;99.90;;;;;;4997620;28;20033;-79
2023/08/29 04:29:16;;;;;;;1.98;0.40;;;12.60;99.90;;;;;;4994784;28;20195;-79
2023/08/29 04:31:43;;;;;;;1.30;0.50;;;12.60;99.90;;;;;;4978684;28;20524;-79
2023/08/29 04:34:09;;;;;;;1.35;0.50;;;12.60;99.90;;;;;;5024310;28;20039;-79
2023/08/29 04:36:36;;;;;;;1.00;0.40;;;12.50;99.90;;;;;;4995672;28;20963;-79
2023/08/29 04:39:02;;;;;;;1.55;0.40;;;12.50;99.90;;;;;;5012022;28;20040;-79
2023/08/29 04:41:29;;;;;;;1.15;0.30;;;12.40;99.90;;;;;;4997714;28;20041;-79
2023/08/29 04:43:56;;;;;;;1.25;0.50;;;12.40;99.90;;;;;;5010703;28;20034;-79
2023/08/29 04:46:22;;;;;;;1.73;0.60;;;12.40;99.90;;;;;;5012542;28;20045;-80
2023/08/29 04:48:50;;;;;;;0.52;0.40;;;12.40;99.90;;;;;;5028273;28;20037;-79
2023/08/29 04:51:18;;;;;;;1.48;0.50;;;12.40;99.90;;;;;;4980533;28;20037;-80
2023/08/29 04:53:47;;;;;;;1.52;0.50;;;12.40;99.90;;;;;;4993501;28;20040;-79
2023/08/29 04:56:13;;;;;;;1.15;0.50;;;12.40;99.90;;;;;;4998047;28;20657;-79
2023/08/29 04:58:39;;;;;;;1.02;0.40;;;12.40;99.90;;;;;;4978680;28;20022;-79
2023/08/29 05:01:06;;;;;;;1.75;0.50;;;12.40;99.90;;;;;;4978677;28;20034;-79
2023/08/29 05:03:32;;;;;;;1.02;0.50;;;12.40;99.90;;;;;;4992728;28;20061;-79
2023/08/29 05:05:59;;;;;;;1.45;0.40;;;12.40;99.90;;;;;;4978318;28;20519;-79
2023/08/29 05:08:25;;;;;;;2.28;0.60;;;12.50;99.90;;;;;;5027776;28;20436;-79
2023/08/29 05:10:52;;;;;;;1.92;0.68;;;12.40;99.90;;;;;;4995424;28;20477;-79
2023/08/29 05:13:18;;;;;;;1.80;0.57;;;12.50;99.90;;;;;;4995142;28;20791;-79
2023/08/29 05:15:44;;;;;;;1.67;0.60;;;12.40;99.90;;;;;;4997226;28;20046;-79
2023/08/29 05:18:11;;;;;;;3.45;1.20;;;12.40;99.90;;;;;;5014307;28;21428;-78
2023/08/29 05:20:37;;;;;;;1.00;0.60;;;12.40;99.90;;;;;;5016106;28;20376;-79
2023/08/29 05:23:04;;;;;;;1.98;0.60;;;12.50;99.90;;;;;;4979841;28;20045;-80
2023/08/29 05:25:31;;;;;;;1.15;0.60;;;12.40;99.90;;;;;;4997442;28;22482;-79
2023/08/29 05:27:57;;;;;;;2.33;0.70;;;12.40;99.90;;;;;;5029739;28;20030;-79
2023/08/29 05:30:24;;;;;;;1.67;0.50;;;12.50;99.90;;;;;;5012101;28;20045;-79
2023/08/29 05:32:50;;;;;;;1.23;0.50;;;12.50;99.90;;;;;;4993018;28;20037;-80
2023/08/29 05:35:17;;;;;;;1.33;0.52;;;12.50;99.90;;;;;;4993356;28;20587;-80
2023/08/29 05:37:43;;;;;;;1.63;0.50;;;12.50;99.90;;;;;;4996717;28;20511;-79
2023/08/29 05:40:10;;;;;;;1.10;0.40;;;12.60;99.90;;;;;;4979451;28;20038;-80
2023/08/29 05:42:36;;;;;;;1.65;0.60;;;12.60;99.90;;;;;;4993298;28;20037;-80
2023/08/29 05:45:03;;;;;;;1.10;0.55;;;12.60;99.90;;;;;;4994465;28;20042;-80
2023/08/29 05:47:30;;;;;;;2.35;0.70;;;12.70;99.90;;;;;;4997288;28;20052;-80
2023/08/29 05:49:57;;;;;;;1.42;0.60;;;12.70;99.90;;;;;;4979538;28;20048;-80
2023/08/29 05:52:24;;;;;;;1.83;0.90;;;12.70;99.90;;;;;;4995432;28;20037;-80
2023/08/29 05:54:50;;;;;;;1.25;0.57;;;12.70;99.90;;;;;;4995678;28;20105;-79
2023/08/29 05:57:17;;;;;;;2.25;0.60;;;12.70;99.90;;;;;;4980888;28;20045;-79
2023/08/29 05:59:43;;;;;;;1.33;0.68;;;12.80;99.90;;;;;;4978783;28;20045;-80
2023/08/29 06:02:09;;;;;;;2.97;0.80;;;12.80;99.90;;;;;;4976177;28;20034;-82
2023/08/29 06:04:37;;;;;;;2.40;0.80;;;12.80;99.90;;;;;;4976184;28;20029;-82
2023/08/29 06:07:04;;;;;;;1.90;0.80;;;12.80;99.90;;;;;;5011293;28;20060;-79
2023/08/29 06:09:33;;;;;;;1.67;0.70;;;12.90;99.90;;;;;;4994658;28;20046;-79
2023/08/29 06:11:59;;;;;;;1.52;0.63;;;12.90;99.90;;;;;;4963394;28;20034;-79
2023/08/29 06:14:26;;;;;;;2.13;0.70;;;12.90;99.90;;;;;;4975567;28;20045;-80
2023/08/29 06:16:52;;;;;;;1.63;0.60;;;12.90;99.90;;;;;;4979228;28;20411;-78
2023/08/29 06:19:19;;;;;;;1.80;0.60;;;12.90;99.90;;;;;;4995741;28;20045;-78
2023/08/29 06:21:45;;;;;;;1.10;0.60;;;13.00;99.90;;;;;;4992818;28;20615;-79
2023/08/29 06:24:12;;;;;;;2.83;1.52;;;13.10;99.90;;;;;;5025867;28;20678;-78
2023/08/29 06:26:38;;;;;;;1.48;0.77;;;13.10;99.90;;;;;;5025134;28;20034;-78
2023/08/29 06:29:04;;;;;;;2.38;0.88;;;13.20;99.90;;;;;;4992400;28;20034;-77
2023/08/29 06:31:31;;;;;;;3.53;0.77;;;13.40;99.90;;;;;;5025470;28;20037;-78
2023/08/29 06:33:59;;;;;;;1.55;0.70;;;13.50;99.90;;;;;;4990969;28;20413;-76
2023/08/29 06:36:29;;;;;;;2.25;0.90;;;13.60;99.90;;;;;;5007717;28;20039;-75
2023/08/29 06:38:55;;;;;;;1.63;1.10;;;13.80;99.90;;;;;;5025056;28;20033;-77
2023/08/29 06:41:22;;;;;;;2.10;0.70;;;14.00;99.90;;;;;;5010129;28;20065;-77
2023/08/29 06:43:48;;;;;;;1.40;0.60;;;14.30;99.90;;;;;;5024801;28;20405;-78
2023/08/29 06:46:15;;;;;;;1.75;0.80;;;14.50;99.90;;;;;;5027579;28;20871;-78
2023/08/29 06:48:42;;;;;;;1.83;1.00;;;14.70;99.90;;;;;;5010201;28;20046;-80
2023/08/29 06:51:09;;;;;;;3.25;1.30;;;14.90;99.90;;;;;;4995561;28;20029;-79
2023/08/29 06:53:36;;;;;;;3.42;0.80;;;15.10;99.90;;;;;;4994220;28;20132;-78
2023/08/29 06:56:03;;;;;;;2.30;0.73;;;15.40;99.90;;;;;;4975754;28;20046;-78
2023/08/29 06:58:30;;;;;;;2.65;0.82;;;15.60;99.90;;;;;;4991421;28;20420;-79
2023/08/29 07:00:56;;;;;;;1.30;0.80;;;15.80;99.90;;;;;;4992477;28;20040;-78
2023/08/29 07:03:23;;;;;;;1.52;0.50;;;16.00;99.90;;;;;;4973566;28;20571;-77
2023/08/29 07:05:49;;;;;;;1.52;0.63;;;16.20;99.90;;;;;;4976188;28;20477;-79
2023/08/29 07:08:16;;;;;;;1.42;0.88;;;16.50;99.90;;;;;;4991827;28;20076;-78
2023/08/29 07:10:42;;;;;;;1.05;0.40;;;16.80;99.90;;;;;;4992145;28;20048;-79
2023/08/29 07:13:08;;;;;;;1.63;0.50;;;17.00;99.90;;;;;;4989535;28;21248;-80
2023/08/29 07:15:35;;;;;;;1.58;0.40;;;17.20;99.90;;;;;;5009714;28;20038;-79
2023/08/29 07:18:03;;;;;;;1.27;0.40;;;17.40;99.90;;;;;;5010285;28;20040;-80
2023/08/29 07:20:30;;;;;;;0.98;0.40;;;17.60;99.90;;;;;;4992430;28;20045;-79
2023/08/29 07:22:56;;;;;;;1.30;0.30;;;17.70;99.90;;;;;;5006596;28;20057;-78
2023/08/29 07:25:39;;;;;;;1.85;0.30;;;17.90;99.90;;;;;;4993070;28;20046;-78
2023/08/29 07:28:08;;;;;;;0.85;0.30;;;18.10;99.90;;;;;;4992226;28;20520;-77
2023/08/29 07:30:35;;;;;;;0.80;0.20;;;18.20;99.90;;;;;;4992097;28;20037;-80
2023/08/29 07:33:01;;;;;;;1.08;0.30;;;18.30;99.90;;;;;;4977152;28;20484;-79
2023/08/29 07:35:27;;;;;;;0.98;0.30;;;18.40;99.90;;;;;;4993269;28;20026;-79
2023/08/29 07:37:54;;;;;;;1.42;0.30;;;18.50;99.90;;;;;;4992284;28;20460;-78
2023/08/29 07:40:20;;;;;;;0.30;0.30;;;18.60;99.90;;;;;;4996172;28;20042;-79
2023/08/29 07:42:47;;;;;;;2.67;0.80;;;18.60;99.90;;;;;;4991667;28;20038;-80
2023/08/29 07:45:13;;;;;;;1.27;0.60;;;18.70;99.90;;;;;;5008070;28;20041;-80
2023/08/29 07:47:40;;;;;;;3.67;0.60;;;18.80;99.90;;;;;;4993593;28;20045;-80
2023/08/29 07:50:06;;;;;;;1.55;0.40;;;18.80;99.90;;;;;;4995165;28;20038;-80
2023/08/29 07:52:34;;;;;;;1.88;0.30;;;18.80;99.90;;;;;;4990680;28;20037;-79
2023/08/29 07:55:00;;;;;;;0.85;0.20;;;18.90;99.90;;;;;;5007120;28;20200;-80
2023/08/29 07:57:27;;;;;;;0.40;0.20;;;18.90;99.90;;;;;;4993857;28;20420;-79
2023/08/29 07:59:53;;;;;;;1.17;0.10;;;18.90;99.90;;;;;;4993204;28;20038;-79
2023/08/29 08:02:20;;;;;;;0.40;0.10;;;19.00;99.90;;;;;;4990367;28;20045;-79
2023/08/29 08:04:47;;;;;;;0.98;0.20;;;19.00;99.90;;;;;;5006668;28;20041;-79
2023/08/29 08:07:13;;;;;;;1.38;0.20;;;19.00;99.90;;;;;;5007402;28;20048;-78
2023/08/29 08:09:42;;;;;;;0.50;0.10;;;19.00;99.90;;;;;;5025381;28;20041;-79
2023/08/29 08:12:08;;;;;;;0.80;0.10;;;19.10;99.90;;;;;;5024775;28;20034;-78
2023/08/29 08:14:34;;;;;;;0.30;0.20;;;19.10;99.90;;;;;;5025980;28;20034;-79
2023/08/29 08:17:01;;;;;;;0.93;0.20;;;19.10;99.90;;;;;;5025590;28;20041;-78
2023/08/29 08:19:27;;;;;;;1.60;0.20;;;19.20;99.90;;;;;;4994477;28;20049;-79
2023/08/29 08:21:53;;;;;;;0.80;0.40;;;19.20;99.90;;;;;;4992760;28;20046;-78
2023/08/29 08:24:20;;;;;;;0.28;0.10;;;19.30;99.90;;;;;;4990795;28;20048;-78
2023/08/29 08:26:47;;;;;;;0.88;0.30;;;19.40;99.90;;;;;;4992922;28;20050;-78
2023/08/29 08:29:13;;;;;;;1.58;0.10;;;19.40;99.90;;;;;;4990348;28;20038;-78
2023/08/29 08:31:40;;;;;;;0.52;0.10;;;19.40;99.90;;;;;;4973570;28;20045;-78
2023/08/29 08:34:07;;;;;;;0.93;0.20;;;19.50;99.90;;;;;;4988612;28;20041;-78
2023/08/29 08:36:33;;;;;;;1.02;0.20;;;19.50;99.90;;;;;;4975675;28;20504;-78
2023/08/29 08:39:00;;;;;;;0.70;0.20;;;19.50;99.90;;;;;;4990709;28;20042;-78
2023/08/29 08:41:26;;;;;;;0.60;0.20;;;19.60;99.90;;;;;;4973416;28;20585;-77
2023/08/29 08:43:56;;;;;;;1.63;0.20;;;19.70;99.90;;;;;;5007653;28;20038;-78
2023/08/29 08:46:23;;;;;;;0.57;0.20;;;19.80;99.90;;;;;;4993395;28;20046;-79
2023/08/29 08:48:49;;;;;;;1.10;0.20;;;19.90;99.90;;;;;;4990804;28;20396;-79
2023/08/29 08:51:19;;;;;;;1.80;0.30;;;19.90;99.90;;;;;;4990712;28;20022;-84
2023/08/29 08:53:46;;;;;;;1.98;0.20;;;20.00;99.90;;;;;;4974266;28;20037;-85
2023/08/29 08:56:12;;;;;;;0.60;0.20;;;20.10;99.90;;;;;;5007889;28;20044;-80
2023/08/29 08:58:39;;;;;;;1.20;0.10;;;20.20;99.90;;;;;;4975359;28;20054;-77
2023/08/29 09:01:07;;;;;;;0.47;0.10;;;20.20;99.90;;;;;;4973566;28;20049;-87
2023/08/29 09:03:35;;;;;;;0.38;0.10;;;20.20;99.90;;;;;;4990312;28;20486;-86
2023/08/29 09:06:01;;;;;;;1.40;0.30;;;20.30;99.90;;;;;;4975922;28;20511;-84
2023/08/29 09:08:31;;;;;;;1.20;0.28;;;20.50;99.90;;;;;;4996273;28;20049;-86
2023/08/29 09:11:01;;;;;;;1.17;0.25;;;20.60;99.90;;;;;;4995261;28;20029;-83
2023/08/29 09:13:27;;;;;;;1.02;0.20;;;20.60;99.90;;;;;;4992520;28;20034;-86
2023/08/29 09:15:54;;;;;;;1.02;0.20;;;20.60;99.90;;;;;;4998125;28;20041;-85
2023/08/29 09:18:31;;;;;;;1.35;0.30;;;20.70;99.90;;;;;;4996112;28;20034;-81
2023/08/29 09:21:00;;;;;;;0.85;0.20;;;20.80;99.90;;;;;;4995467;28;20843;-87
2023/08/29 09:23:29;;;;;;;1.08;0.20;;;20.90;99.90;;;;;;5024299;28;20029;-86
2023/08/29 09:25:58;;;;;;;0.73;0.10;;;21.00;99.90;;;;;;4977440;28;20412;-83
2023/08/29 09:28:30;;;;;;;1.67;0.22;;;21.10;99.90;;;;;;4995398;28;20492;-80
2023/08/29 09:31:10;;;;;;;0.68;0.10;;;21.20;99.90;;;;;;4993227;28;20030;-80
2023/08/29 09:33:38;;;;;;;0.85;0.10;;;21.30;99.90;;;;;;5011015;28;20485;-80
2023/08/29 09:36:05;;;;;;;1.42;0.17;;;21.40;99.90;;;;;;5023655;28;20095;-80
2023/08/29 09:38:33;;;;;;;1.50;0.30;;;21.50;99.90;;;;;;4975843;28;20034;-80
2023/08/29 09:41:00;;;;;;;0.38;0.10;;;21.60;99.90;;;;;;4992907;28;20033;-80
2023/08/29 09:43:28;;;;;;;1.27;0.20;;;21.70;99.90;;;;;;5007069;28;20045;-80
2023/08/29 09:45:56;;;;;;;1.05;0.13;;;21.80;99.90;;;;;;4993121;28;20041;-78
2023/08/29 09:48:23;;;;;;;0.90;0.13;;;21.80;99.90;;;;;;4992283;28;20045;-78
2023/08/29 09:50:51;;;;;;;1.02;0.20;;;21.90;99.90;;;;;;4976365;28;20038;-77
2023/08/29 09:53:19;;;;;;;1.67;0.20;;;21.90;99.90;;;;;;5022978;28;20038;-78
2023/08/29 09:56:05;;;;;;;0.35;0.15;;;21.80;99.90;;;;;;5026333;28;20033;-77
2023/08/29 09:58:32;;;;;;;1.30;0.10;;;21.90;99.90;;;;;;4977179;28;20033;-77
2023/08/29 10:01:00;;;;;;;0.68;0.10;;;22.00;99.90;;;;;;4975839;28;20493;-77
2023/08/29 10:03:26;;;;;;;0.80;0.20;;;22.10;99.90;;;;;;4992431;28;20038;-78
2023/08/29 10:05:55;;;;;;;1.67;0.20;;;22.20;99.90;;;;;;4991714;28;20041;-76
2023/08/29 10:08:51;;;;;;;0.55;0.10;;;22.20;99.90;;;;;;4974948;28;20053;-77
2023/08/29 10:11:19;;;;;;;0.75;0.20;;;22.40;99.90;;;;;;4988302;28;20517;-77
2023/08/29 10:13:48;;;;;;;0.57;0.20;;;22.60;99.90;;;;;;5007652;28;20639;-78
2023/08/29 10:16:15;;;;;;;0.43;0.17;;;22.70;99.90;;;;;;4993291;28;20041;-78
2023/08/29 10:18:44;;;;;;;0.65;0.15;;;22.80;99.90;;;;;;5006607;28;20038;-77
2023/08/29 10:21:11;;;;;;;0.52;0.20;;;22.80;99.90;;;;;;4993204;28;20053;-77
2023/08/29 10:23:38;;;;;;;1.05;0.20;;;22.90;99.90;;;;;;5010660;28;21156;-78
2023/08/29 10:26:06;;;;;;;0.98;0.20;;;23.10;99.90;;;;;;4978520;28;20496;-78
2023/08/29 10:28:33;;;;;;;0.40;0.20;;;23.30;99.90;;;;;;4993464;28;20508;-78
2023/08/29 10:31:04;;;;;;;1.52;0.20;;;23.80;99.90;;;;;;4991961;28;20037;-78
2023/08/29 10:33:31;;;;;;;0.43;0.20;;;24.30;99.90;;;;;;5007260;28;20396;-78
2023/08/29 10:36:00;;;;;;;0.50;0.20;;;24.60;99.90;;;;;;4992270;28;20451;-78
2023/08/29 10:38:28;;;;;;;1.58;0.20;;;24.90;99.90;;;;;;5005587;28;20037;-78
2023/08/29 10:41:09;;;;;;;1.25;0.22;;;24.90;99.90;;;;;;4975111;28;20041;-79
2023/08/29 10:43:36;;;;;;;1.92;0.30;;;24.70;99.90;;;;;;4990931;28;20049;-78
2023/08/29 10:46:11;;;;;;;0.77;0.30;;;24.20;99.90;;;;;;5006528;28;20034;-79
2023/08/29 10:48:44;;;;;;;0.70;0.20;;;23.80;99.90;;;;;;5003623;28;20037;-78
2023/08/29 10:51:11;;;;;;;0.65;0.20;;;23.40;99.90;;;;;;5003853;28;20038;-79
2023/08/29 10:53:52;;;;;;;1.23;0.20;;;23.00;99.90;;;;;;4994849;28;20045;-79
2023/08/29 10:56:25;;;;;;;0.52;0.13;;;22.60;99.90;;;;;;4976927;28;20535;-78
2023/08/29 10:58:52;;;;;;;0.30;0.10;;;22.30;99.90;;;;;;5010460;28;20117;-79
2023/08/29 11:01:24;;;;;;;0.70;0.22;;;22.10;99.90;;;;;;5028183;28;20477;-78
2023/08/29 11:03:51;;;;;;;0.70;0.25;;;21.90;99.90;;;;;;5009983;28;20832;-82
2023/08/29 11:06:25;;;;;;;0.20;0.13;;;21.80;99.90;;;;;;4994113;28;20397;-88
2023/08/29 11:09:15;;;;;;;0.28;0.20;;;21.60;99.90;;;;;;4997166;28;20392;-77
2023/08/29 11:11:42;;;;;;;0.28;0.20;;;21.50;99.90;;;;;;5016784;28;20042;-80
2023/08/29 11:14:08;;;;;;;0.40;0.20;;;21.50;99.90;;;;;;4993056;28;20042;-80
2023/08/29 11:16:37;;;;;;;1.00;0.30;;;21.40;99.90;;;;;;5010722;28;20428;-81
2023/08/29 11:19:14;;;;;;;1.45;0.32;;;21.50;99.90;;;;;;4978933;28;20053;-79
2023/08/29 11:21:44;;;;;;;1.73;0.50;;;21.50;99.90;;;;;;4976640;28;20413;-79
2023/08/29 11:24:11;;;;;;;0.82;0.40;;;21.60;99.90;;;;;;5024388;28;20477;-78
2023/08/29 11:26:39;;;;;;;1.98;0.40;;;21.60;99.90;;;;;;5010585;28;20042;-79
2023/08/29 11:29:06;;;;;;;0.95;0.30;;;21.70;99.90;;;;;;4993134;28;20044;-79
2023/08/29 11:31:42;;;;;;;1.58;0.35;;;21.70;99.90;;;;;;4994717;28;20041;-79
2023/08/29 11:34:20;;;;;;;0.82;0.40;;;21.90;99.90;;;;;;4977560;28;20109;-79
2023/08/29 11:36:48;;;;;;;0.55;0.20;;;21.90;99.90;;;;;;4977803;28;20894;-78
2023/08/29 11:39:17;;;;;;;0.95;0.30;;;22.00;99.90;;;;;;5010632;28;20038;-79
2023/08/29 11:41:44;;;;;;;0.50;0.30;;;22.10;99.90;;;;;;5010212;28;20489;-78
2023/08/29 11:44:10;;;;;;;0.60;0.20;;;22.20;99.90;;;;;;4992795;28;20268;-79
2023/08/29 11:46:37;;;;;;;0.88;0.30;;;22.30;99.90;;;;;;4993814;28;20405;-79
2023/08/29 11:49:14;;;;;;;1.30;0.40;;;22.50;99.90;;;;;;4994093;28;20030;-79
2023/08/29 11:51:41;;;;;;;1.20;0.40;;;22.60;99.90;;;;;;5025774;28;20038;-79
2023/08/29 11:54:35;;;;;;;1.00;0.40;;;22.70;99.90;;;;;;4994165;28;20029;-79
2023/08/29 11:57:05;;;;;;;0.68;0.30;;;22.90;99.90;;;;;;4993383;28;20045;-78
2023/08/29 11:59:32;;;;;;;0.52;0.38;;;23.10;99.90;;;;;;5026813;28;20030;-79
2023/08/29 12:01:59;;;;;;;0.70;0.40;;;23.40;99.90;;;;;;4995117;28;20034;-79
2023/08/29 12:04:27;;;;;;;3.10;0.60;;;23.80;99.90;;;;;;5008832;28;20049;-79
2023/08/29 12:07:09;;;;;;;2.80;0.70;;;24.30;99.90;;;;;;4994958;28;20037;-79
2023/08/29 12:09:37;;;;;;;1.48;0.60;;;24.70;99.90;;;;;;5024976;28;20129;-79
2023/08/29 12:12:06;;;;;;;1.02;0.50;;;25.20;99.90;;;;;;4994963;28;20033;-79
2023/08/29 12:14:49;;;;;;;3.20;0.50;;;25.50;99.90;;;;;;5010071;28;20041;-78
2023/08/29 12:17:16;;;;;;;1.42;0.40;;;25.50;99.90;;;;;;4996459;28;20484;-79
2023/08/29 12:19:42;;;;;;;1.17;0.40;;;25.50;99.90;;;;;;4994765;28;20048;-79
2023/08/29 12:22:09;;;;;;;1.10;0.40;;;25.80;99.90;;;;;;4994875;28;20038;-79
2023/08/29 12:24:35;;;;;;;0.60;0.30;;;26.00;99.90;;;;;;4978881;28;20511;-79
2023/08/29 12:27:04;;;;;;;1.80;0.50;;;26.10;99.90;;;;;;4977951;28;20042;-79
2023/08/29 12:29:31;;;;;;;1.63;0.50;;;26.30;99.90;;;;;;4993226;28;20511;-79
2023/08/29 12:31:58;;;;;;;3.05;1.05;;;27.00;99.90;;;;;;4978801;28;20061;-80
2023/08/29 12:34:27;;;;;;;1.98;0.90;;;27.70;99.90;;;;;;5026030;28;20025;-80
2023/08/29 12:36:54;;;;;;;1.48;0.40;;;27.90;99.40;;;;;;5010040;28;20034;-77
2023/08/29 12:39:20;;;;;;;1.92;0.70;;;28.00;98.80;;;;;;4977841;28;20538;-77
2023/08/29 12:41:47;;;;;;;1.00;0.50;;;28.00;98.10;;;;;;5029140;28;20046;-77
2023/08/29 12:44:13;;;;;;;0.80;0.32;;;28.00;97.80;;;;;;5014010;28;20034;-77
2023/08/29 12:46:40;;;;;;;3.05;0.50;;;28.60;97.50;;;;;;4999061;28;20034;-77
2023/08/29 12:49:30;;;;;;;0.95;0.30;;;29.00;96.40;;;;;;4993361;28;20041;-77
2023/08/29 12:51:57;;;;;;;0.85;0.30;;;28.90;95.50;;;;;;5030357;28;20401;-77